createdAt,value
2019-02-21T00:01:02.780Z,8.70
2019-02-21T00:03:34.876Z,8.70
2019-02-21T00:06:06.766Z,8.63
2019-02-21T00:08:38.549Z,9.30
2019-02-21T00:11:10.391Z,9.53
2019-02-21T00:13:42.146Z,8.43
2019-02-21T00:16:13.900Z,8.63
2019-02-21T00:18:45.665Z,9.73
2019-02-21T00:21:17.434Z,9.00
2019-02-21T00:23:49.202Z,9.00
2019-02-21T00:26:21.028Z,8.38
2019-02-21T00:28:52.951Z,8.50
2019-02-21T00:31:24.783Z,8.70
2019-02-21T00:33:56.550Z,8.63
2019-02-21T00:36:28.450Z,8.60
2019-02-21T00:39:00.217Z,8.83
2019-02-21T00:41:32.316Z,8.43
2019-02-21T00:44:04.179Z,8.40
2019-02-21T00:46:36.009Z,8.30
2019-02-21T00:49:07.783Z,8.87
2019-02-21T00:51:39.817Z,9.33
2019-02-21T00:54:11.588Z,8.53
2019-02-21T00:56:43.751Z,8.63
2019-02-21T00:59:16.107Z,8.35
2019-02-21T01:01:48.106Z,8.10
2019-02-21T01:04:20.314Z,8.65
2019-02-21T01:06:52.186Z,8.73
2019-02-21T01:09:24.056Z,8.45
2019-02-21T01:11:55.946Z,8.80
2019-02-21T01:14:27.947Z,9.10
2019-02-21T01:17:00.375Z,8.33
2019-02-21T01:19:32.327Z,9.73
2019-02-21T01:22:04.539Z,10.13
2019-02-21T01:24:36.428Z,8.10
2019-02-21T01:27:08.385Z,8.67
2019-02-21T01:29:40.789Z,8.20
2019-02-21T01:32:12.576Z,8.90
2019-02-21T01:34:44.384Z,9.90
2019-02-21T01:37:16.167Z,9.83
2019-02-21T01:39:48.036Z,9.03
2019-02-21T01:42:19.984Z,8.50
2019-02-21T01:44:51.853Z,9.47
2019-02-21T01:47:23.719Z,10.03
2019-02-21T01:49:55.535Z,9.00
2019-02-21T01:52:27.312Z,9.10
2019-02-21T01:54:59.186Z,9.53
2019-02-21T01:57:31.036Z,9.77
2019-02-21T02:00:03.003Z,10.23
2019-02-21T02:02:35.234Z,10.10
2019-02-21T02:05:07.854Z,10.13
2019-02-21T02:07:40.129Z,9.33
2019-02-21T02:10:12.338Z,10.17
2019-02-21T02:12:44.520Z,11.10
2019-02-21T02:15:16.469Z,12.20
2019-02-21T02:17:48.255Z,10.80
2019-02-21T02:20:20.144Z,10.07
2019-02-21T02:22:52.079Z,11.17
2019-02-21T02:25:24.618Z,11.75
2019-02-21T02:27:56.439Z,10.17
2019-02-21T02:30:28.292Z,10.53
2019-02-21T02:33:00.044Z,10.30
2019-02-21T02:35:32.074Z,11.50
2019-02-21T02:38:04.168Z,12.17
2019-02-21T02:40:35.946Z,11.73
2019-02-21T02:43:07.868Z,15.10
2019-02-21T02:45:40.862Z,12.67
2019-02-21T02:48:12.624Z,12.93
2019-02-21T02:50:44.704Z,12.83
2019-02-21T02:53:16.492Z,12.10
2019-02-21T02:55:48.264Z,10.10
2019-02-21T02:58:20.139Z,9.43
2019-02-21T03:00:51.987Z,10.17
2019-02-21T03:03:23.897Z,11.70
2019-02-21T03:05:55.680Z,13.63
2019-02-21T03:08:27.604Z,11.93
2019-02-21T03:10:59.474Z,13.07
2019-02-21T03:13:31.305Z,12.63
2019-02-21T03:16:04.285Z,12.37
2019-02-21T03:18:36.297Z,11.53
2019-02-21T03:21:08.467Z,11.43
2019-02-21T03:23:40.219Z,10.97
2019-02-21T03:26:12.295Z,10.80
2019-02-21T03:28:44.054Z,9.77
2019-02-21T03:31:15.812Z,10.50
2019-02-21T03:33:47.591Z,9.67
2019-02-21T03:36:19.338Z,8.70
2019-02-21T03:38:51.299Z,9.03
2019-02-21T03:41:23.134Z,8.67
2019-02-21T03:43:54.983Z,8.17
2019-02-21T03:46:26.846Z,9.17
2019-02-21T03:48:58.596Z,8.60
2019-02-21T03:51:30.360Z,9.00
2019-02-21T03:54:02.275Z,9.50
2019-02-21T03:56:34.104Z,8.70
2019-02-21T03:59:06.000Z,10.10
2019-02-21T04:01:38.032Z,9.07
2019-02-21T04:04:10.177Z,11.23
2019-02-21T04:06:42.096Z,11.90
2019-02-21T04:09:14.177Z,11.07
2019-02-21T04:11:46.023Z,13.17
2019-02-21T04:14:20.820Z,13.43
2019-02-21T04:16:51.683Z,13.00
2019-02-21T04:19:23.531Z,11.87
2019-02-21T04:21:55.378Z,13.40
2019-02-21T04:24:27.145Z,14.28
2019-02-21T04:26:58.973Z,13.23
2019-02-21T04:29:33.437Z,12.30
2019-02-21T04:32:16.173Z,12.40
2019-02-21T04:34:38.851Z,12.88
2019-02-21T04:37:10.586Z,13.07
2019-02-21T04:39:42.706Z,10.33
2019-02-21T04:42:14.773Z,12.28
2019-02-21T04:44:46.598Z,11.17
2019-02-21T04:47:18.443Z,11.17
2019-02-21T04:49:50.622Z,11.63
2019-02-21T04:52:22.364Z,10.30
2019-02-21T04:54:54.112Z,10.03
2019-02-21T04:57:26.103Z,10.93
2019-02-21T04:59:57.923Z,11.37
2019-02-21T05:02:29.927Z,11.33
2019-02-21T05:05:01.685Z,11.27
2019-02-21T05:07:33.483Z,10.90
2019-02-21T05:10:05.542Z,10.90
2019-02-21T05:12:37.381Z,10.27
2019-02-21T05:15:13.791Z,11.53
2019-02-21T05:17:44.171Z,10.53
2019-02-21T05:20:16.985Z,11.00
2019-02-21T05:22:48.753Z,10.63
2019-02-21T05:25:20.513Z,10.97
2019-02-21T05:27:57.035Z,11.23
2019-02-21T05:30:29.128Z,10.70
2019-02-21T05:33:18.253Z,10.73
2019-02-21T05:35:56.955Z,11.37
2019-02-21T05:38:43.854Z,11.40
2019-02-21T05:41:33.177Z,10.65
2019-02-21T05:44:11.570Z,9.63
2019-02-21T05:47:05.256Z,11.23
2019-02-21T05:49:42.763Z,10.32
2019-02-21T05:52:19.633Z,10.25
2019-02-21T05:54:57.779Z,10.70
2019-02-21T05:57:41.170Z,10.63
2019-02-21T06:00:47.054Z,10.83
2019-02-21T06:03:35.718Z,10.03
2019-02-21T06:06:33.942Z,10.50
2019-02-21T06:09:38.386Z,11.67
2019-02-21T06:12:33.133Z,10.70
2019-02-21T06:15:08.292Z,9.90
2019-02-21T06:18:02.228Z,10.53
2019-02-21T06:20:57.654Z,9.97
2019-02-21T06:23:57.906Z,11.07
2019-02-21T06:26:40.940Z,11.60
2019-02-21T06:29:22.882Z,11.57
2019-02-21T06:31:54.691Z,10.67
2019-02-21T06:34:26.520Z,10.65
2019-02-21T06:36:58.883Z,11.03
2019-02-21T06:39:30.662Z,11.47
2019-02-21T06:42:02.553Z,11.20
2019-02-21T06:44:34.307Z,11.17
2019-02-21T06:47:06.222Z,10.83
2019-02-21T06:49:38.040Z,11.40
2019-02-21T06:52:10.121Z,12.20
2019-02-21T06:54:41.868Z,12.53
2019-02-21T06:57:13.618Z,11.43
2019-02-21T06:59:45.594Z,11.03
2019-02-21T07:02:17.385Z,11.30
2019-02-21T07:04:49.125Z,12.90
2019-02-21T07:07:20.869Z,12.47
2019-02-21T07:09:52.601Z,13.40
2019-02-21T07:12:24.420Z,13.20
2019-02-21T07:14:56.416Z,13.67
2019-02-21T07:17:28.150Z,13.43
2019-02-21T07:19:59.972Z,13.67
2019-02-21T07:22:31.702Z,13.27
2019-02-21T07:25:14.489Z,12.87
2019-02-21T07:27:46.284Z,12.43
2019-02-21T07:30:20.336Z,11.07
2019-02-21T07:32:52.743Z,11.37
2019-02-21T07:35:24.539Z,11.83
2019-02-21T07:37:57.243Z,12.40
2019-02-21T07:40:29.067Z,13.53
2019-02-21T07:43:01.770Z,13.33
2019-02-21T07:45:36.223Z,12.40
2019-02-21T07:48:07.219Z,12.80
2019-02-21T07:50:38.947Z,13.60
2019-02-21T07:53:11.923Z,13.40
2019-02-21T07:55:43.736Z,14.60
2019-02-21T07:58:15.704Z,14.87
2019-02-21T08:00:47.843Z,15.40
2019-02-21T08:03:29.750Z,17.30
2019-02-21T08:05:53.093Z,17.17
2019-02-21T08:08:25.897Z,18.30
2019-02-21T08:10:58.070Z,19.03
2019-02-21T08:13:29.993Z,20.10
2019-02-21T08:16:01.738Z,18.20
2019-02-21T08:18:33.501Z,17.30
2019-02-21T08:21:05.439Z,16.47
2019-02-21T08:23:37.448Z,16.53
2019-02-21T08:26:10.703Z,16.63
2019-02-21T08:28:42.591Z,16.87
2019-02-21T08:31:14.337Z,16.00
2019-02-21T08:33:58.473Z,16.37
2019-02-21T08:36:28.291Z,17.20
2019-02-21T08:39:00.027Z,17.07
2019-02-21T08:41:31.770Z,18.35
2019-02-21T08:44:03.514Z,18.67
2019-02-21T08:46:35.254Z,16.27
2019-02-21T08:49:07.146Z,17.35
2019-02-21T08:51:38.963Z,17.00
2019-02-21T08:54:11.506Z,18.07
2019-02-21T08:56:43.398Z,17.53
2019-02-21T08:59:15.480Z,18.48
2019-02-21T09:01:47.329Z,17.23
2019-02-21T09:04:27.319Z,17.60
2019-02-21T09:06:53.128Z,18.10
2019-02-21T09:09:25.010Z,17.15
2019-02-21T09:11:57.331Z,17.37
2019-02-21T09:14:29.293Z,17.83
2019-02-21T09:17:01.040Z,17.23
2019-02-21T09:19:32.782Z,17.83
2019-02-21T09:22:04.521Z,16.83
2019-02-21T09:24:40.138Z,19.13
2019-02-21T09:27:10.248Z,18.27
2019-02-21T09:29:41.949Z,17.83
2019-02-21T09:32:13.938Z,18.30
2019-02-21T09:34:45.759Z,16.63
2019-02-21T09:37:17.574Z,19.23
2019-02-21T09:39:52.670Z,18.90
2019-02-21T09:42:24.633Z,18.27
2019-02-21T09:44:57.377Z,17.53
2019-02-21T09:47:30.923Z,17.60
2019-02-21T09:50:02.842Z,18.40
2019-02-21T09:52:34.803Z,16.80
2019-02-21T09:55:10.618Z,18.12
2019-02-21T09:57:42.550Z,17.62
2019-02-21T10:00:17.563Z,16.17
2019-02-21T10:02:49.515Z,17.77
2019-02-21T10:05:21.336Z,17.33
2019-02-21T10:07:53.165Z,17.87
2019-02-21T10:10:25.018Z,17.60
2019-02-21T10:12:56.911Z,17.10
2019-02-21T10:15:31.281Z,17.75
2019-02-21T10:18:02.122Z,19.73
2019-02-21T10:20:33.902Z,18.30
2019-02-21T10:23:05.742Z,16.73
2019-02-21T10:25:37.690Z,17.57
2019-02-21T10:28:09.765Z,17.60
2019-02-21T10:30:41.575Z,17.37
2019-02-21T10:33:13.313Z,16.43
2019-02-21T10:35:45.118Z,18.07
2019-02-21T10:38:17.295Z,17.07
2019-02-21T10:40:49.095Z,13.90
2019-02-21T10:43:20.908Z,17.50
2019-02-21T10:45:52.720Z,16.77
2019-02-21T10:48:24.461Z,14.93
2019-02-21T10:50:56.265Z,17.03
2019-02-21T10:53:28.013Z,11.87
2019-02-21T10:55:59.733Z,7.55
2019-02-21T10:58:31.566Z,11.43
2019-02-21T11:01:03.447Z,14.27
2019-02-21T11:03:35.762Z,12.30
2019-02-21T11:06:07.659Z,13.57
2019-02-21T11:08:39.399Z,14.30
2019-02-21T11:11:11.312Z,13.93
2019-02-21T11:13:44.191Z,8.43
2019-02-21T11:16:16.255Z,16.02
2019-02-21T11:18:48.109Z,11.97
2019-02-21T11:21:19.974Z,15.53
2019-02-21T11:23:53.397Z,16.07
2019-02-21T11:26:25.160Z,14.47
2019-02-21T11:28:56.972Z,15.40
2019-02-21T11:31:28.802Z,16.33
2019-02-21T11:34:00.540Z,13.97
2019-02-21T11:36:32.271Z,15.03
2019-02-21T11:39:05.100Z,15.23
2019-02-21T11:41:36.997Z,16.23
2019-02-21T11:44:09.740Z,17.42
2019-02-21T11:46:41.552Z,18.17
2019-02-21T11:49:13.431Z,14.20
2019-02-21T11:51:45.256Z,17.57
2019-02-21T11:54:26.520Z,17.55
2019-02-21T11:56:50.538Z,16.75
2019-02-21T11:59:22.285Z,19.60
2019-02-21T12:01:54.099Z,18.90
2019-02-21T12:04:26.346Z,17.73
2019-02-21T12:06:58.137Z,17.57
2019-02-21T12:09:29.894Z,18.47
2019-02-21T12:12:01.703Z,17.73
2019-02-21T12:14:33.444Z,17.50
2019-02-21T12:17:05.432Z,16.77
2019-02-21T12:19:37.174Z,21.83
2019-02-21T12:22:10.226Z,18.43
2019-02-21T12:24:41.978Z,19.23
2019-02-21T12:27:13.869Z,17.17
2019-02-21T12:29:45.611Z,16.73
2019-02-21T12:32:17.354Z,18.90
2019-02-21T12:34:49.101Z,11.23
2019-02-21T12:37:20.846Z,19.55
2019-02-21T12:39:52.673Z,15.37
2019-02-21T12:42:24.482Z,22.73
2019-02-21T12:44:56.401Z,16.77
2019-02-21T12:47:28.135Z,17.03
2019-02-21T12:50:00.323Z,15.07
2019-02-21T12:52:32.132Z,18.13
2019-02-21T12:55:04.320Z,16.93
2019-02-21T12:57:36.306Z,17.07
2019-02-21T13:00:12.702Z,17.52
2019-02-21T13:02:44.509Z,18.17
2019-02-21T13:05:16.422Z,17.70
2019-02-21T13:07:48.274Z,16.57
2019-02-21T13:10:20.439Z,18.80
2019-02-21T13:12:52.164Z,19.73
2019-02-21T13:15:24.256Z,17.65
2019-02-21T13:17:56.313Z,12.63
2019-02-21T13:20:28.135Z,16.83
2019-02-21T13:23:00.146Z,13.93
2019-02-21T13:25:32.295Z,12.63
2019-02-21T13:28:04.012Z,14.97
2019-02-21T13:30:35.865Z,16.13
2019-02-21T13:33:07.674Z,13.20
2019-02-21T13:35:39.421Z,17.13
2019-02-21T13:38:11.230Z,16.60
2019-02-21T13:40:43.114Z,11.10
2019-02-21T13:43:14.847Z,18.37
2019-02-21T13:45:46.589Z,17.83
2019-02-21T13:48:18.396Z,15.88
2019-02-21T13:50:50.141Z,18.13
2019-02-21T13:53:21.877Z,17.63
2019-02-21T13:55:54.269Z,17.83
2019-02-21T13:58:26.206Z,17.02
2019-02-21T14:00:58.352Z,16.03
2019-02-21T14:03:30.182Z,16.23
2019-02-21T14:06:03.792Z,11.97
2019-02-21T14:08:36.297Z,16.17
2019-02-21T14:11:08.719Z,16.17
2019-02-21T14:13:40.428Z,15.00
2019-02-21T14:16:12.199Z,16.30
2019-02-21T14:18:43.942Z,16.07
2019-02-21T14:21:15.844Z,15.43
2019-02-21T14:23:47.798Z,16.00
2019-02-21T14:26:19.551Z,15.93
2019-02-21T14:28:51.288Z,13.90
2019-02-21T14:31:23.031Z,14.33
2019-02-21T14:33:54.847Z,15.80
2019-02-21T14:36:26.599Z,14.97
2019-02-21T14:38:58.846Z,16.93
2019-02-21T14:41:30.599Z,16.93
2019-02-21T14:44:02.334Z,17.57
2019-02-21T14:46:34.155Z,13.80
2019-02-21T14:49:05.980Z,15.63
2019-02-21T14:51:37.808Z,14.87
2019-02-21T14:54:09.964Z,16.73
2019-02-21T14:56:41.779Z,16.20
2019-02-21T14:59:14.278Z,16.67
2019-02-21T15:01:46.091Z,15.30
2019-02-21T15:04:17.818Z,16.25
2019-02-21T15:06:49.571Z,16.17
2019-02-21T15:09:21.301Z,17.12
2019-02-21T15:11:53.213Z,16.27
2019-02-21T15:14:24.968Z,14.15
2019-02-21T15:16:56.787Z,12.10
2019-02-21T15:19:29.791Z,14.17
2019-02-21T15:22:01.661Z,16.53
2019-02-21T15:24:33.494Z,15.13
2019-02-21T15:27:08.662Z,16.30
2019-02-21T15:29:41.611Z,14.90
2019-02-21T15:32:14.395Z,14.67
2019-02-21T15:34:47.249Z,13.55
2019-02-21T15:37:19.082Z,13.98
2019-02-21T15:39:50.814Z,12.03
2019-02-21T15:42:22.728Z,15.45
2019-02-21T15:44:54.507Z,12.43
2019-02-21T15:47:26.613Z,12.55
2019-02-21T15:49:58.352Z,13.93
2019-02-21T15:52:30.102Z,15.50
2019-02-21T15:55:11.857Z,32.70
2019-02-21T15:57:35.292Z,18.13
2019-02-21T16:00:09.202Z,15.10
2019-02-21T16:02:41.095Z,14.47
2019-02-21T16:05:13.066Z,13.13
2019-02-21T16:07:44.894Z,14.80
2019-02-21T16:10:19.782Z,14.00
2019-02-21T16:12:51.932Z,13.50
2019-02-21T16:15:23.980Z,13.93
2019-02-21T16:17:55.769Z,13.73
2019-02-21T16:20:27.576Z,14.65
2019-02-21T16:22:59.408Z,14.73
2019-02-21T16:25:31.293Z,14.80
2019-02-21T16:28:03.075Z,15.80
2019-02-21T16:30:35.045Z,16.97
2019-02-21T16:33:09.336Z,16.30
2019-02-21T16:35:46.134Z,15.67
2019-02-21T16:38:18.019Z,15.10
2019-02-21T16:40:50.712Z,15.17
2019-02-21T16:43:22.754Z,16.82
2019-02-21T16:45:54.552Z,15.87
2019-02-21T16:48:26.331Z,15.87
2019-02-21T16:50:58.135Z,16.73
2019-02-21T16:53:29.897Z,16.57
2019-02-21T16:56:01.633Z,16.67
2019-02-21T16:58:33.547Z,18.00
2019-02-21T17:01:05.408Z,19.43
2019-02-21T17:03:37.161Z,20.27
2019-02-21T17:06:10.083Z,22.25
2019-02-21T17:08:42.023Z,17.70
2019-02-21T17:11:13.925Z,17.82
2019-02-21T17:13:45.739Z,16.27
2019-02-21T17:16:17.745Z,15.43
2019-02-21T17:18:49.488Z,16.63
2019-02-21T17:21:21.568Z,14.30
2019-02-21T17:23:53.386Z,14.30
2019-02-21T17:26:25.150Z,15.17
2019-02-21T17:28:57.775Z,14.50
2019-02-21T17:31:29.502Z,15.37
2019-02-21T17:34:01.357Z,15.70
2019-02-21T17:36:33.227Z,14.97
2019-02-21T17:39:05.354Z,15.20
2019-02-21T17:41:38.029Z,14.90
2019-02-21T17:44:10.059Z,15.30
2019-02-21T17:46:42.111Z,14.80
2019-02-21T17:49:15.653Z,14.60
2019-02-21T17:51:47.526Z,14.73
2019-02-21T17:54:19.333Z,14.93
2019-02-21T17:56:51.085Z,15.00
2019-02-21T17:59:22.827Z,14.95
2019-02-21T18:01:54.901Z,18.23
2019-02-21T18:04:26.648Z,19.55
2019-02-21T18:06:58.517Z,14.20
2019-02-21T18:09:30.333Z,14.73
2019-02-21T18:12:02.153Z,13.77
2019-02-21T18:14:33.897Z,13.67
2019-02-21T18:17:05.711Z,13.90
2019-02-21T18:19:37.727Z,14.27
2019-02-21T18:22:09.491Z,14.97
2019-02-21T18:24:41.520Z,14.90
2019-02-21T18:27:13.402Z,14.03
2019-02-21T18:29:45.397Z,14.13
2019-02-21T18:32:17.280Z,14.15
2019-02-21T18:34:49.600Z,13.77
2019-02-21T18:37:21.700Z,15.77
2019-02-21T18:39:53.439Z,15.57
2019-02-21T18:42:25.177Z,15.65
2019-02-21T18:44:56.957Z,15.33
2019-02-21T18:47:28.678Z,16.13
2019-02-21T18:50:00.668Z,15.97
2019-02-21T18:52:32.644Z,16.43
2019-02-21T18:55:04.509Z,15.77
2019-02-21T18:57:36.375Z,15.10
2019-02-21T19:00:11.027Z,15.72
2019-02-21T19:02:44.347Z,15.47
2019-02-21T19:05:16.241Z,14.83
2019-02-21T19:07:59.618Z,14.03
2019-02-21T19:10:22.882Z,14.93
2019-02-21T19:12:54.678Z,15.33
2019-02-21T19:15:27.622Z,14.20
2019-02-21T19:17:59.498Z,15.13
2019-02-21T19:20:31.513Z,14.30
2019-02-21T19:23:03.829Z,15.00
2019-02-21T19:25:37.510Z,15.23
2019-02-21T19:28:09.483Z,15.50
2019-02-21T19:30:46.782Z,15.67
2019-02-21T19:33:18.591Z,16.30
2019-02-21T19:35:50.667Z,17.00
2019-02-21T19:38:22.472Z,15.95
2019-02-21T19:40:54.613Z,16.03
2019-02-21T19:43:26.499Z,15.83
2019-02-21T19:45:58.385Z,16.73
2019-02-21T19:48:30.259Z,16.10
2019-02-21T19:51:02.145Z,17.00
2019-02-21T19:53:33.874Z,16.37
2019-02-21T19:56:05.773Z,16.47
2019-02-21T19:58:37.655Z,15.27
2019-02-21T20:01:10.105Z,16.00
2019-02-21T20:03:41.841Z,16.57
2019-02-21T20:06:13.762Z,17.50
2019-02-21T20:08:45.562Z,20.80
2019-02-21T20:11:17.407Z,19.47
2019-02-21T20:13:49.222Z,19.00
2019-02-21T20:16:21.122Z,16.80
2019-02-21T20:18:53.000Z,15.07
2019-02-21T20:21:24.740Z,15.13
2019-02-21T20:23:56.570Z,14.13
2019-02-21T20:26:28.751Z,14.58
2019-02-21T20:29:00.487Z,14.85
2019-02-21T20:31:32.312Z,15.70
2019-02-21T20:34:04.743Z,15.63
2019-02-21T20:36:36.808Z,15.27
2019-02-21T20:39:09.296Z,15.85
2019-02-21T20:41:41.471Z,16.17
2019-02-21T20:44:13.259Z,17.10
2019-02-21T20:46:45.437Z,17.70
2019-02-21T20:49:17.505Z,16.82
2019-02-21T20:51:49.251Z,16.67
2019-02-21T20:54:21.070Z,17.02
2019-02-21T20:56:53.057Z,17.53
2019-02-21T20:59:24.878Z,18.07
2019-02-21T21:01:56.625Z,18.57
2019-02-21T21:04:28.505Z,19.37
2019-02-21T21:07:00.349Z,19.50
2019-02-21T21:09:32.578Z,21.03
2019-02-21T21:12:04.713Z,21.27
2019-02-21T21:14:36.609Z,22.77
2019-02-21T21:17:09.350Z,23.12
2019-02-21T21:19:41.159Z,22.70
2019-02-21T21:22:12.977Z,18.90
2019-02-21T21:24:44.821Z,19.40
2019-02-21T21:27:16.575Z,19.20
2019-02-21T21:29:48.314Z,17.60
2019-02-21T21:32:20.061Z,18.75
2019-02-21T21:34:51.868Z,19.03
2019-02-21T21:37:23.760Z,19.42
2019-02-21T21:39:55.492Z,18.50
2019-02-21T21:42:27.337Z,18.32
2019-02-21T21:44:59.127Z,19.47
2019-02-21T21:47:30.927Z,17.73
2019-02-21T21:50:02.669Z,18.87
2019-02-21T21:52:34.558Z,18.93
2019-02-21T21:55:07.547Z,18.37
2019-02-21T21:57:39.695Z,19.03
2019-02-21T22:00:19.125Z,20.03
2019-02-21T22:02:51.126Z,20.17
2019-02-21T22:05:23.014Z,27.80
2019-02-21T22:07:54.835Z,23.03
2019-02-21T22:10:26.577Z,21.75
2019-02-21T22:12:58.398Z,20.57
2019-02-21T22:15:30.136Z,19.67
2019-02-21T22:18:01.948Z,17.60
2019-02-21T22:20:33.842Z,20.67
2019-02-21T22:23:05.759Z,19.97
2019-02-21T22:25:37.575Z,20.47
2019-02-21T22:28:09.397Z,19.30
2019-02-21T22:30:41.519Z,19.07
2019-02-21T22:33:13.333Z,19.67
2019-02-21T22:35:45.056Z,18.50
2019-02-21T22:38:24.154Z,17.37
2019-02-21T22:40:55.880Z,18.83
2019-02-21T22:43:27.693Z,16.77
2019-02-21T22:45:59.420Z,18.47
2019-02-21T22:48:31.157Z,17.23
2019-02-21T22:51:02.976Z,18.73
2019-02-21T22:53:34.733Z,18.70
2019-02-21T22:56:06.551Z,19.63
2019-02-21T22:58:45.126Z,19.47
2019-02-21T23:01:29.602Z,20.33
2019-02-21T23:04:36.443Z,20.27
2019-02-21T23:07:56.703Z,20.17
2019-02-21T23:10:28.777Z,20.07
2019-02-21T23:13:00.596Z,20.95
2019-02-21T23:15:32.417Z,22.53
2019-02-21T23:18:04.158Z,20.87
2019-02-21T23:20:35.983Z,20.87
2019-02-21T23:23:10.754Z,20.10
2019-02-21T23:25:42.680Z,20.90
2019-02-21T23:28:14.493Z,19.98
2019-02-21T23:30:46.255Z,20.70
2019-02-21T23:33:18.148Z,20.00
2019-02-21T23:35:49.897Z,20.03
2019-02-21T23:38:22.186Z,18.75
2019-02-21T23:40:53.943Z,19.40
2019-02-21T23:43:25.824Z,19.30
2019-02-21T23:45:57.821Z,20.03
2019-02-21T23:48:29.561Z,20.43
2019-02-21T23:51:01.313Z,20.80
2019-02-21T23:53:33.135Z,20.03
2019-02-21T23:56:04.886Z,19.87
2019-02-21T23:58:36.880Z,19.47
